sensor_id;sensor_type;location;lat;lon;timestamp;pressure;altitude;pressure_sealevel;temperature;humidity
8069;BME280;4077;43.702;24.896;2022-12-18T00:00:43;100303.47;;;4.90;100.00
8069;BME280;4077;43.702;24.896;2022-12-18T00:03:08;100312.59;;;4.85;100.00
8069;BME280;4077;43.702;24.896;2022-12-18T00:05:35;100288.75;;;4.86;100.00
8069;BME280;4077;43.702;24.896;2022-12-18T00:08:00;100309.22;;;4.86;100.00
8069;BME280;4077;43.702;24.896;2022-12-18T00:10:27;100313.69;;;4.90;100.00
8069;BME280;4077;43.702;24.896;2022-12-18T00:12:53;100321.38;;;4.90;100.00
8069;BME280;4077;43.702;24.896;2022-12-18T00:15:18;100319.63;;;4.89;100.00
8069;BME280;4077;43.702;24.896;2022-12-18T00:17:44;100331.22;;;5.01;100.00
8069;BME280;4077;43.702;24.896;2022-12-18T00:20:09;100330.44;;;5.02;100.00
8069;BME280;4077;43.702;24.896;2022-12-18T00:22:35;100329.47;;;5.00;100.00
8069;BME280;4077;43.702;24.896;2022-12-18T00:25:00;100337.81;;;4.96;100.00
8069;BME280;4077;43.702;24.896;2022-12-18T00:27:26;100347.16;;;4.95;100.00
8069;BME280;4077;43.702;24.896;2022-12-18T00:29:51;100363.53;;;4.99;100.00
8069;BME280;4077;43.702;24.896;2022-12-18T00:32:17;100361.13;;;5.02;100.00
8069;BME280;4077;43.702;24.896;2022-12-18T00:34:42;100350.09;;;4.85;100.00
8069;BME280;4077;43.702;24.896;2022-12-18T00:37:08;100367.34;;;4.89;100.00
8069;BME280;4077;43.702;24.896;2022-12-18T00:39:33;100379.75;;;4.81;100.00
8069;BME280;4077;43.702;24.896;2022-12-18T00:41:58;100391.56;;;4.79;100.00
8069;BME280;4077;43.702;24.896;2022-12-18T00:44:43;100387.63;;;4.68;100.00
8069;BME280;4077;43.702;24.896;2022-12-18T00:47:08;100397.69;;;4.65;100.00
8069;BME280;4077;43.702;24.896;2022-12-18T00:49:33;100392.88;;;4.71;100.00
8069;BME280;4077;43.702;24.896;2022-12-18T00:51:59;100396.31;;;4.54;100.00
8069;BME280;4077;43.702;24.896;2022-12-18T00:54:24;100394.94;;;4.60;100.00
8069;BME280;4077;43.702;24.896;2022-12-18T00:56:50;100399.00;;;4.57;100.00
8069;BME280;4077;43.702;24.896;2022-12-18T00:59:16;100402.50;;;4.59;100.00
8069;BME280;4077;43.702;24.896;2022-12-18T01:01:41;100396.00;;;4.48;100.00
8069;BME280;4077;43.702;24.896;2022-12-18T01:04:07;100393.38;;;4.46;100.00
8069;BME280;4077;43.702;24.896;2022-12-18T01:06:33;100403.66;;;4.31;100.00
8069;BME280;4077;43.702;24.896;2022-12-18T01:08:58;100395.88;;;4.28;100.00
8069;BME280;4077;43.702;24.896;2022-12-18T01:11:24;100413.56;;;4.42;100.00
8069;BME280;4077;43.702;24.896;2022-12-18T01:13:49;100420.13;;;4.36;100.00
8069;BME280;4077;43.702;24.896;2022-12-18T01:16:16;100420.94;;;4.19;100.00
8069;BME280;4077;43.702;24.896;2022-12-18T01:18:42;100416.13;;;4.25;100.00
8069;BME280;4077;43.702;24.896;2022-12-18T01:21:10;100420.84;;;4.34;100.00
8069;BME280;4077;43.702;24.896;2022-12-18T01:23:37;100424.78;;;4.27;100.00
8069;BME280;4077;43.702;24.896;2022-12-18T01:26:08;100421.25;;;4.25;100.00
8069;BME280;4077;43.702;24.896;2022-12-18T01:28:34;100412.31;;;4.01;100.00
8069;BME280;4077;43.702;24.896;2022-12-18T01:31:20;100419.75;;;4.13;100.00
8069;BME280;4077;43.702;24.896;2022-12-18T01:33:46;100421.25;;;3.93;100.00
8069;BME280;4077;43.702;24.896;2022-12-18T01:38:45;100429.22;;;3.82;100.00
8069;BME280;4077;43.702;24.896;2022-12-18T01:41:11;100419.94;;;3.68;100.00
8069;BME280;4077;43.702;24.896;2022-12-18T01:44:46;100430.03;;;3.81;100.00
8069;BME280;4077;43.702;24.896;2022-12-18T01:46:49;100436.31;;;3.72;100.00
8069;BME280;4077;43.702;24.896;2022-12-18T01:49:14;100433.44;;;3.66;100.00
8069;BME280;4077;43.702;24.896;2022-12-18T01:51:40;100438.94;;;3.73;100.00
8069;BME280;4077;43.702;24.896;2022-12-18T01:54:05;100442.59;;;3.62;100.00
8069;BME280;4077;43.702;24.896;2022-12-18T01:56:31;100438.47;;;3.64;100.00
8069;BME280;4077;43.702;24.896;2022-12-18T01:59:05;100424.25;;;3.69;100.00
8069;BME280;4077;43.702;24.896;2022-12-18T02:01:33;100433.91;;;3.59;100.00
8069;BME280;4077;43.702;24.896;2022-12-18T02:04:25;100438.13;;;3.58;100.00
8069;BME280;4077;43.702;24.896;2022-12-18T02:09:34;100457.28;;;3.66;100.00
8069;BME280;4077;43.702;24.896;2022-12-18T02:14:49;100448.97;;;3.70;100.00
8069;BME280;4077;43.702;24.896;2022-12-18T02:17:24;100453.78;;;3.64;100.00
8069;BME280;4077;43.702;24.896;2022-12-18T02:28:44;100457.28;;;3.66;100.00
8069;BME280;4077;43.702;24.896;2022-12-18T02:31:14;100465.75;;;3.65;100.00
8069;BME280;4077;43.702;24.896;2022-12-18T02:33:43;100469.06;;;3.79;100.00
8069;BME280;4077;43.702;24.896;2022-12-18T02:36:10;100479.13;;;3.61;100.00
8069;BME280;4077;43.702;24.896;2022-12-18T02:38:42;100473.06;;;3.59;100.00
8069;BME280;4077;43.702;24.896;2022-12-18T02:41:10;100471.66;;;3.64;100.00
8069;BME280;4077;43.702;24.896;2022-12-18T02:43:35;100461.72;;;3.54;100.00
8069;BME280;4077;43.702;24.896;2022-12-18T02:46:41;100470.84;;;3.65;100.00
8069;BME280;4077;43.702;24.896;2022-12-18T02:54:26;100466.47;;;3.48;100.00
8069;BME280;4077;43.702;24.896;2022-12-18T02:56:57;100459.47;;;3.44;100.00
8069;BME280;4077;43.702;24.896;2022-12-18T02:59:34;100465.25;;;3.41;100.00
8069;BME280;4077;43.702;24.896;2022-12-18T03:02:29;100479.16;;;3.46;100.00
8069;BME280;4077;43.702;24.896;2022-12-18T03:05:03;100455.16;;;3.28;100.00
8069;BME280;4077;43.702;24.896;2022-12-18T03:10:28;100480.78;;;3.29;100.00
8069;BME280;4077;43.702;24.896;2022-12-18T03:13:06;100488.59;;;3.33;100.00
8069;BME280;4077;43.702;24.896;2022-12-18T03:15:41;100483.66;;;3.36;100.00
8069;BME280;4077;43.702;24.896;2022-12-18T03:18:12;100497.50;;;3.24;100.00
8069;BME280;4077;43.702;24.896;2022-12-18T03:20:39;100496.63;;;3.24;100.00
8069;BME280;4077;43.702;24.896;2022-12-18T03:23:09;100497.06;;;3.32;100.00
8069;BME280;4077;43.702;24.896;2022-12-18T03:25:39;100499.06;;;3.22;100.00
8069;BME280;4077;43.702;24.896;2022-12-18T03:28:07;100493.88;;;3.21;100.00
8069;BME280;4077;43.702;24.896;2022-12-18T03:30:36;100497.16;;;3.18;100.00
8069;BME280;4077;43.702;24.896;2022-12-18T03:33:08;100495.50;;;3.04;100.00
8069;BME280;4077;43.702;24.896;2022-12-18T03:35:39;100497.53;;;3.10;100.00
8069;BME280;4077;43.702;24.896;2022-12-18T03:38:05;100498.28;;;2.94;100.00
8069;BME280;4077;43.702;24.896;2022-12-18T03:40:59;100514.66;;;3.12;100.00
8069;BME280;4077;43.702;24.896;2022-12-18T03:48:52;100522.81;;;3.21;100.00
8069;BME280;4077;43.702;24.896;2022-12-18T03:51:32;100510.25;;;3.24;100.00
8069;BME280;4077;43.702;24.896;2022-12-18T03:54:03;100506.66;;;3.06;100.00
8069;BME280;4077;43.702;24.896;2022-12-18T03:56:33;100531.13;;;3.17;100.00
8069;BME280;4077;43.702;24.896;2022-12-18T03:59:02;100527.25;;;3.09;100.00
8069;BME280;4077;43.702;24.896;2022-12-18T04:01:33;100530.56;;;3.08;100.00
8069;BME280;4077;43.702;24.896;2022-12-18T04:04:01;100536.81;;;3.13;100.00
8069;BME280;4077;43.702;24.896;2022-12-18T04:06:29;100533.75;;;3.04;100.00
8069;BME280;4077;43.702;24.896;2022-12-18T04:08:57;100535.66;;;3.08;100.00
8069;BME280;4077;43.702;24.896;2022-12-18T04:11:23;100544.63;;;3.01;100.00
8069;BME280;4077;43.702;24.896;2022-12-18T04:13:48;100535.50;;;3.05;100.00
8069;BME280;4077;43.702;24.896;2022-12-18T04:16:14;100547.66;;;3.09;100.00
8069;BME280;4077;43.702;24.896;2022-12-18T04:18:39;100549.28;;;3.09;100.00
8069;BME280;4077;43.702;24.896;2022-12-18T04:21:04;100547.88;;;2.99;100.00
8069;BME280;4077;43.702;24.896;2022-12-18T04:23:30;100561.38;;;3.11;100.00
8069;BME280;4077;43.702;24.896;2022-12-18T04:25:55;100571.13;;;3.04;100.00
8069;BME280;4077;43.702;24.896;2022-12-18T04:28:21;100568.66;;;3.05;100.00
8069;BME280;4077;43.702;24.896;2022-12-18T04:30:46;100563.72;;;3.08;100.00
8069;BME280;4077;43.702;24.896;2022-12-18T04:33:13;100568.75;;;3.21;100.00
8069;BME280;4077;43.702;24.896;2022-12-18T04:35:41;100578.94;;;3.21;100.00
8069;BME280;4077;43.702;24.896;2022-12-18T04:38:07;100590.75;;;3.19;100.00
8069;BME280;4077;43.702;24.896;2022-12-18T04:40:36;100588.03;;;3.16;100.00
8069;BME280;4077;43.702;24.896;2022-12-18T04:43:03;100591.78;;;3.08;100.00
8069;BME280;4077;43.702;24.896;2022-12-18T04:45:30;100594.97;;;3.04;100.00
8069;BME280;4077;43.702;24.896;2022-12-18T04:47:57;100598.84;;;3.12;100.00
8069;BME280;4077;43.702;24.896;2022-12-18T04:50:23;100600.06;;;3.04;100.00
8069;BME280;4077;43.702;24.896;2022-12-18T04:52:48;100599.19;;;3.04;100.00
8069;BME280;4077;43.702;24.896;2022-12-18T04:55:13;100605.16;;;3.04;100.00
8069;BME280;4077;43.702;24.896;2022-12-18T04:57:39;100608.50;;;3.03;100.00
8069;BME280;4077;43.702;24.896;2022-12-18T05:00:05;100619.75;;;3.07;100.00
8069;BME280;4077;43.702;24.896;2022-12-18T05:02:31;100617.47;;;3.11;100.00
8069;BME280;4077;43.702;24.896;2022-12-18T05:04:57;100618.16;;;3.09;100.00
8069;BME280;4077;43.702;24.896;2022-12-18T05:07:22;100619.25;;;3.12;100.00
8069;BME280;4077;43.702;24.896;2022-12-18T05:09:47;100636.50;;;3.16;100.00
8069;BME280;4077;43.702;24.896;2022-12-18T05:12:13;100632.41;;;3.05;100.00
8069;BME280;4077;43.702;24.896;2022-12-18T05:14:38;100639.66;;;3.12;100.00
8069;BME280;4077;43.702;24.896;2022-12-18T05:17:04;100646.50;;;3.13;100.00
8069;BME280;4077;43.702;24.896;2022-12-18T05:19:29;100646.72;;;3.16;100.00
8069;BME280;4077;43.702;24.896;2022-12-18T05:21:54;100646.13;;;3.07;100.00
8069;BME280;4077;43.702;24.896;2022-12-18T05:24:20;100637.16;;;2.99;100.00
8069;BME280;4077;43.702;24.896;2022-12-18T05:26:45;100659.47;;;3.16;100.00
8069;BME280;4077;43.702;24.896;2022-12-18T05:29:11;100660.78;;;3.24;100.00
8069;BME280;4077;43.702;24.896;2022-12-18T05:31:38;100661.59;;;3.23;100.00
8069;BME280;4077;43.702;24.896;2022-12-18T05:34:03;100667.88;;;3.15;100.00
8069;BME280;4077;43.702;24.896;2022-12-18T05:36:29;100669.88;;;3.06;100.00
8069;BME280;4077;43.702;24.896;2022-12-18T05:38:54;100669.19;;;3.09;100.00
8069;BME280;4077;43.702;24.896;2022-12-18T05:41:20;100691.22;;;3.21;100.00
8069;BME280;4077;43.702;24.896;2022-12-18T05:43:45;100681.63;;;3.17;100.00
8069;BME280;4077;43.702;24.896;2022-12-18T05:46:13;100685.72;;;3.15;100.00
8069;BME280;4077;43.702;24.896;2022-12-18T05:48:40;100683.94;;;2.99;100.00
8069;BME280;4077;43.702;24.896;2022-12-18T05:51:07;100685.41;;;3.09;100.00
8069;BME280;4077;43.702;24.896;2022-12-18T05:53:33;100688.69;;;3.08;100.00
8069;BME280;4077;43.702;24.896;2022-12-18T05:56:01;100690.06;;;3.16;100.00
8069;BME280;4077;43.702;24.896;2022-12-18T05:58:27;100694.97;;;3.13;100.00
8069;BME280;4077;43.702;24.896;2022-12-18T06:00:53;100703.88;;;3.20;100.00
8069;BME280;4077;43.702;24.896;2022-12-18T06:03:18;100692.44;;;3.13;100.00
8069;BME280;4077;43.702;24.896;2022-12-18T06:05:45;100712.34;;;3.34;100.00
8069;BME280;4077;43.702;24.896;2022-12-18T06:08:12;100714.31;;;3.38;100.00
8069;BME280;4077;43.702;24.896;2022-12-18T06:10:38;100719.22;;;3.35;100.00
8069;BME280;4077;43.702;24.896;2022-12-18T06:13:04;100721.41;;;3.28;100.00
8069;BME280;4077;43.702;24.896;2022-12-18T06:15:29;100722.81;;;3.23;100.00
8069;BME280;4077;43.702;24.896;2022-12-18T06:17:55;100723.03;;;3.13;100.00
8069;BME280;4077;43.702;24.896;2022-12-18T06:20:20;100733.91;;;3.24;100.00
8069;BME280;4077;43.702;24.896;2022-12-18T06:22:46;100732.22;;;3.24;100.00
8069;BME280;4077;43.702;24.896;2022-12-18T06:25:11;100750.88;;;3.23;100.00
8069;BME280;4077;43.702;24.896;2022-12-18T06:27:37;100758.44;;;3.22;100.00
8069;BME280;4077;43.702;24.896;2022-12-18T06:30:03;100766.38;;;3.26;100.00
8069;BME280;4077;43.702;24.896;2022-12-18T06:32:29;100759.88;;;3.04;100.00
8069;BME280;4077;43.702;24.896;2022-12-18T06:34:54;100768.44;;;3.19;100.00
8069;BME280;4077;43.702;24.896;2022-12-18T06:37:21;100773.66;;;3.20;100.00
8069;BME280;4077;43.702;24.896;2022-12-18T06:39:47;100787.00;;;3.29;100.00
8069;BME280;4077;43.702;24.896;2022-12-18T06:42:12;100788.44;;;3.26;100.00
8069;BME280;4077;43.702;24.896;2022-12-18T06:44:38;100792.44;;;3.36;100.00
8069;BME280;4077;43.702;24.896;2022-12-18T06:47:03;100794.72;;;3.31;100.00
8069;BME280;4077;43.702;24.896;2022-12-18T06:49:28;100794.81;;;3.33;100.00
8069;BME280;4077;43.702;24.896;2022-12-18T06:51:54;100799.84;;;3.31;100.00
8069;BME280;4077;43.702;24.896;2022-12-18T06:54:19;100783.25;;;3.24;100.00
8069;BME280;4077;43.702;24.896;2022-12-18T06:56:45;100808.63;;;3.36;100.00
8069;BME280;4077;43.702;24.896;2022-12-18T06:59:12;100812.81;;;3.49;100.00
8069;BME280;4077;43.702;24.896;2022-12-18T07:01:38;100805.78;;;3.45;100.00
8069;BME280;4077;43.702;24.896;2022-12-18T07:04:03;100808.13;;;3.42;100.00
8069;BME280;4077;43.702;24.896;2022-12-18T07:06:29;100808.88;;;3.54;100.00
8069;BME280;4077;43.702;24.896;2022-12-18T07:08:54;100813.84;;;3.38;100.00
8069;BME280;4077;43.702;24.896;2022-12-18T07:11:21;100818.72;;;3.48;100.00
8069;BME280;4077;43.702;24.896;2022-12-18T07:13:47;100817.72;;;3.59;100.00
8069;BME280;4077;43.702;24.896;2022-12-18T07:16:18;100823.34;;;3.68;100.00
8069;BME280;4077;43.702;24.896;2022-12-18T07:18:43;100828.97;;;3.63;100.00
8069;BME280;4077;43.702;24.896;2022-12-18T07:21:11;100823.34;;;3.68;100.00
8069;BME280;4077;43.702;24.896;2022-12-18T07:23:37;100833.41;;;3.65;100.00
8069;BME280;4077;43.702;24.896;2022-12-18T07:26:05;100836.31;;;3.71;100.00
8069;BME280;4077;43.702;24.896;2022-12-18T07:28:32;100843.41;;;3.62;100.00
8069;BME280;4077;43.702;24.896;2022-12-18T07:31:02;100849.84;;;3.70;100.00
8069;BME280;4077;43.702;24.896;2022-12-18T07:33:28;100853.63;;;3.62;100.00
8069;BME280;4077;43.702;24.896;2022-12-18T07:35:53;100849.41;;;3.63;100.00
8069;BME280;4077;43.702;24.896;2022-12-18T07:38:19;100867.13;;;3.74;100.00
8069;BME280;4077;43.702;24.896;2022-12-18T07:40:44;100864.41;;;3.71;100.00
8069;BME280;4077;43.702;24.896;2022-12-18T07:43:10;100867.09;;;3.88;100.00
8069;BME280;4077;43.702;24.896;2022-12-18T07:45:35;100874.28;;;4.08;100.00
8069;BME280;4077;43.702;24.896;2022-12-18T07:48:01;100870.56;;;4.03;100.00
8069;BME280;4077;43.702;24.896;2022-12-18T07:50:26;100882.22;;;4.13;100.00
8069;BME280;4077;43.702;24.896;2022-12-18T07:52:52;100878.66;;;3.96;100.00
8069;BME280;4077;43.702;24.896;2022-12-18T07:55:17;100889.75;;;3.96;100.00
8069;BME280;4077;43.702;24.896;2022-12-18T07:57:43;100888.44;;;4.03;100.00
8069;BME280;4077;43.702;24.896;2022-12-18T08:00:08;100885.81;;;4.01;100.00
8069;BME280;4077;43.702;24.896;2022-12-18T08:02:34;100885.38;;;4.08;100.00
8069;BME280;4077;43.702;24.896;2022-12-18T08:04:59;100888.06;;;3.97;100.00
8069;BME280;4077;43.702;24.896;2022-12-18T08:07:25;100889.81;;;3.98;100.00
8069;BME280;4077;43.702;24.896;2022-12-18T08:09:50;100877.13;;;3.84;100.00
8069;BME280;4077;43.702;24.896;2022-12-18T08:12:16;100873.78;;;3.86;100.00
8069;BME280;4077;43.702;24.896;2022-12-18T08:14:41;100890.16;;;3.89;100.00
8069;BME280;4077;43.702;24.896;2022-12-18T08:17:07;100892.50;;;3.99;100.00
8069;BME280;4077;43.702;24.896;2022-12-18T08:19:32;100904.53;;;3.87;100.00
8069;BME280;4077;43.702;24.896;2022-12-18T08:21:58;100898.63;;;3.88;100.00
8069;BME280;4077;43.702;24.896;2022-12-18T08:24:23;100882.59;;;3.91;100.00
8069;BME280;4077;43.702;24.896;2022-12-18T08:26:48;100889.63;;;3.80;100.00
8069;BME280;4077;43.702;24.896;2022-12-18T08:29:14;100878.28;;;3.62;100.00
8069;BME280;4077;43.702;24.896;2022-12-18T08:31:39;100887.75;;;3.77;100.00
8069;BME280;4077;43.702;24.896;2022-12-18T08:34:05;100889.06;;;3.71;100.00
8069;BME280;4077;43.702;24.896;2022-12-18T08:36:30;100904.94;;;3.80;100.00
8069;BME280;4077;43.702;24.896;2022-12-18T08:38:56;100909.50;;;3.99;100.00
8069;BME280;4077;43.702;24.896;2022-12-18T08:41:22;100907.53;;;3.95;100.00
8069;BME280;4077;43.702;24.896;2022-12-18T08:43:47;100918.22;;;4.02;100.00
8069;BME280;4077;43.702;24.896;2022-12-18T08:46:37;100918.25;;;4.17;100.00
8069;BME280;4077;43.702;24.896;2022-12-18T08:49:04;100924.91;;;4.00;100.00
8069;BME280;4077;43.702;24.896;2022-12-18T08:51:30;100921.28;;;3.97;100.00
8069;BME280;4077;43.702;24.896;2022-12-18T08:53:55;100918.47;;;3.92;100.00
8069;BME280;4077;43.702;24.896;2022-12-18T08:56:21;100915.91;;;3.92;100.00
8069;BME280;4077;43.702;24.896;2022-12-18T08:58:46;100894.31;;;3.87;100.00
8069;BME280;4077;43.702;24.896;2022-12-18T09:01:13;100917.66;;;4.21;100.00
8069;BME280;4077;43.702;24.896;2022-12-18T09:03:39;100922.34;;;4.28;100.00
8069;BME280;4077;43.702;24.896;2022-12-18T09:06:05;100926.53;;;4.56;100.00
8069;BME280;4077;43.702;24.896;2022-12-18T09:08:31;100923.09;;;4.85;100.00
8069;BME280;4077;43.702;24.896;2022-12-18T09:10:56;100933.69;;;5.68;100.00
8069;BME280;4077;43.702;24.896;2022-12-18T09:13:22;100932.56;;;6.77;100.00
8069;BME280;4077;43.702;24.896;2022-12-18T09:15:50;100936.06;;;7.31;99.66
8069;BME280;4077;43.702;24.896;2022-12-18T09:18:17;100944.63;;;7.13;100.00
8069;BME280;4077;43.702;24.896;2022-12-18T09:20:43;100932.31;;;6.38;100.00
8069;BME280;4077;43.702;24.896;2022-12-18T09:23:09;100931.06;;;5.97;100.00
8069;BME280;4077;43.702;24.896;2022-12-18T09:25:35;100937.06;;;5.67;100.00
8069;BME280;4077;43.702;24.896;2022-12-18T09:28:02;100937.31;;;5.40;100.00
8069;BME280;4077;43.702;24.896;2022-12-18T09:30:28;100929.06;;;5.00;100.00
8069;BME280;4077;43.702;24.896;2022-12-18T09:32:54;100921.81;;;5.08;100.00
8069;BME280;4077;43.702;24.896;2022-12-18T09:35:20;100923.06;;;5.00;100.00
8069;BME280;4077;43.702;24.896;2022-12-18T09:37:45;100930.75;;;5.00;100.00
8069;BME280;4077;43.702;24.896;2022-12-18T09:40:21;100922.53;;;5.05;100.00
8069;BME280;4077;43.702;24.896;2022-12-18T09:42:55;100930.66;;;5.13;100.00
8069;BME280;4077;43.702;24.896;2022-12-18T09:45:23;100926.63;;;5.02;100.00
8069;BME280;4077;43.702;24.896;2022-12-18T09:47:50;100927.38;;;5.01;100.00
8069;BME280;4077;43.702;24.896;2022-12-18T09:50:35;100928.88;;;5.12;100.00
8069;BME280;4077;43.702;24.896;2022-12-18T09:53:06;100938.06;;;5.23;100.00
8069;BME280;4077;43.702;24.896;2022-12-18T09:55:38;100934.28;;;5.16;100.00
8069;BME280;4077;43.702;24.896;2022-12-18T09:58:12;100934.81;;;5.11;100.00
8069;BME280;4077;43.702;24.896;2022-12-18T10:00:39;100931.75;;;5.02;100.00
8069;BME280;4077;43.702;24.896;2022-12-18T10:03:13;100923.78;;;5.12;100.00
8069;BME280;4077;43.702;24.896;2022-12-18T10:06:18;100929.28;;;5.49;100.00
8069;BME280;4077;43.702;24.896;2022-12-18T10:12:18;100935.22;;;5.95;100.00
8069;BME280;4077;43.702;24.896;2022-12-18T10:20:17;100920.28;;;5.88;100.00
8069;BME280;4077;43.702;24.896;2022-12-18T10:25:53;100929.56;;;5.86;100.00
8069;BME280;4077;43.702;24.896;2022-12-18T10:28:20;100943.25;;;5.87;100.00
8069;BME280;4077;43.702;24.896;2022-12-18T10:30:47;100940.56;;;5.69;100.00
8069;BME280;4077;43.702;24.896;2022-12-18T10:33:20;100938.22;;;5.88;100.00
8069;BME280;4077;43.702;24.896;2022-12-18T10:35:48;100945.94;;;5.57;100.00
8069;BME280;4077;43.702;24.896;2022-12-18T10:43:28;100937.50;;;5.43;100.00
8069;BME280;4077;43.702;24.896;2022-12-18T10:46:16;100940.38;;;5.81;100.00
8069;BME280;4077;43.702;24.896;2022-12-18T10:48:53;100949.06;;;5.68;100.00
8069;BME280;4077;43.702;24.896;2022-12-18T10:51:30;100936.03;;;5.63;100.00
8069;BME280;4077;43.702;24.896;2022-12-18T10:54:02;100953.22;;;5.66;100.00
8069;BME280;4077;43.702;24.896;2022-12-18T10:56:31;100956.28;;;5.75;100.00
8069;BME280;4077;43.702;24.896;2022-12-18T10:59:01;100953.84;;;5.62;100.00
8069;BME280;4077;43.702;24.896;2022-12-18T11:01:28;100947.69;;;5.58;100.00
8069;BME280;4077;43.702;24.896;2022-12-18T11:06:23;100949.59;;;5.62;100.00
8069;BME280;4077;43.702;24.896;2022-12-18T11:09:24;100954.84;;;5.64;100.00
8069;BME280;4077;43.702;24.896;2022-12-18T11:11:53;100954.88;;;5.49;100.00
8069;BME280;4077;43.702;24.896;2022-12-18T11:14:24;100957.88;;;5.57;100.00
8069;BME280;4077;43.702;24.896;2022-12-18T11:16:51;100958.81;;;5.59;100.00
8069;BME280;4077;43.702;24.896;2022-12-18T11:19:35;100952.16;;;5.62;100.00
8069;BME280;4077;43.702;24.896;2022-12-18T11:22:03;100960.75;;;5.63;100.00
8069;BME280;4077;43.702;24.896;2022-12-18T11:24:43;100962.41;;;5.77;100.00
8069;BME280;4077;43.702;24.896;2022-12-18T11:27:17;100962.44;;;5.93;100.00
8069;BME280;4077;43.702;24.896;2022-12-18T11:29:43;100952.34;;;5.96;100.00
8069;BME280;4077;43.702;24.896;2022-12-18T11:34:49;100968.72;;;6.15;99.10
8069;BME280;4077;43.702;24.896;2022-12-18T11:37:17;100951.78;;;6.02;100.00
8069;BME280;4077;43.702;24.896;2022-12-18T11:40:09;100952.50;;;6.16;100.00
8069;BME280;4077;43.702;24.896;2022-12-18T11:42:59;100966.31;;;6.18;100.00
8069;BME280;4077;43.702;24.896;2022-12-18T11:45:40;100966.94;;;6.14;100.00
8069;BME280;4077;43.702;24.896;2022-12-18T11:48:22;100976.72;;;6.37;100.00
8069;BME280;4077;43.702;24.896;2022-12-18T11:50:54;100973.03;;;6.48;100.00
8069;BME280;4077;43.702;24.896;2022-12-18T11:53:21;100960.53;;;6.38;99.76
8069;BME280;4077;43.702;24.896;2022-12-18T11:56:02;100966.94;;;6.30;100.00
8069;BME280;4077;43.702;24.896;2022-12-18T12:07:20;100982.44;;;6.82;97.68
8069;BME280;4077;43.702;24.896;2022-12-18T12:13:23;100983.84;;;6.59;91.02
8069;BME280;4077;43.702;24.896;2022-12-18T12:26:38;100993.06;;;6.23;91.47
8069;BME280;4077;43.702;24.896;2022-12-18T12:29:29;100983.13;;;6.13;93.70
8069;BME280;4077;43.702;24.896;2022-12-18T12:32:28;100992.59;;;6.30;96.70
8069;BME280;4077;43.702;24.896;2022-12-18T12:40:52;100984.28;;;6.18;91.35
8069;BME280;4077;43.702;24.896;2022-12-18T12:43:25;100996.13;;;6.32;89.41
8069;BME280;4077;43.702;24.896;2022-12-18T12:46:00;100993.72;;;6.35;91.36
8069;BME280;4077;43.702;24.896;2022-12-18T12:48:45;101000.03;;;6.42;91.64
8069;BME280;4077;43.702;24.896;2022-12-18T12:51:28;101005.41;;;6.63;92.71
8069;BME280;4077;43.702;24.896;2022-12-18T12:53:57;101006.78;;;6.56;91.71
8069;BME280;4077;43.702;24.896;2022-12-18T12:56:27;101002.50;;;6.24;90.55
8069;BME280;4077;43.702;24.896;2022-12-18T13:01:54;101011.91;;;6.40;93.45
8069;BME280;4077;43.702;24.896;2022-12-18T13:07:05;101016.63;;;6.16;90.53
8069;BME280;4077;43.702;24.896;2022-12-18T13:09:32;101015.47;;;5.94;91.28
8069;BME280;4077;43.702;24.896;2022-12-18T13:12:03;101018.44;;;5.87;91.87
8069;BME280;4077;43.702;24.896;2022-12-18T13:14:48;101030.81;;;5.63;93.30
8069;BME280;4077;43.702;24.896;2022-12-18T13:19:51;101022.88;;;5.44;95.72
8069;BME280;4077;43.702;24.896;2022-12-18T13:22:25;101030.91;;;5.50;98.00
8069;BME280;4077;43.702;24.896;2022-12-18T13:24:53;101026.84;;;5.39;95.84
8069;BME280;4077;43.702;24.896;2022-12-18T13:38:36;101037.81;;;5.36;97.10
8069;BME280;4077;43.702;24.896;2022-12-18T13:43:33;101040.19;;;5.33;94.88
8069;BME280;4077;43.702;24.896;2022-12-18T13:46:28;101050.50;;;5.35;94.06
8069;BME280;4077;43.702;24.896;2022-12-18T13:51:35;101072.59;;;5.18;94.15
8069;BME280;4077;43.702;24.896;2022-12-18T13:56:49;101071.34;;;5.26;96.37
8069;BME280;4077;43.702;24.896;2022-12-18T13:59:18;101071.78;;;5.19;100.00
8069;BME280;4077;43.702;24.896;2022-12-18T14:02:13;101071.69;;;5.17;100.00
8069;BME280;4077;43.702;24.896;2022-12-18T14:04:39;101074.84;;;4.99;100.00
8069;BME280;4077;43.702;24.896;2022-12-18T14:07:07;101082.00;;;5.04;100.00
8069;BME280;4077;43.702;24.896;2022-12-18T14:09:39;101075.03;;;5.02;100.00
8069;BME280;4077;43.702;24.896;2022-12-18T14:12:05;101073.44;;;5.04;100.00
8069;BME280;4077;43.702;24.896;2022-12-18T14:14:51;101080.16;;;5.02;100.00
8069;BME280;4077;43.702;24.896;2022-12-18T14:17:17;101063.00;;;4.86;100.00
8069;BME280;4077;43.702;24.896;2022-12-18T14:19:48;101083.16;;;4.94;100.00
8069;BME280;4077;43.702;24.896;2022-12-18T14:22:20;101086.13;;;4.87;100.00
8069;BME280;4077;43.702;24.896;2022-12-18T14:24:47;101086.72;;;4.83;100.00
8069;BME280;4077;43.702;24.896;2022-12-18T14:27:23;101096.16;;;4.84;100.00
8069;BME280;4077;43.702;24.896;2022-12-18T14:29:49;101103.56;;;4.80;100.00
8069;BME280;4077;43.702;24.896;2022-12-18T14:32:17;101109.41;;;4.92;100.00
8069;BME280;4077;43.702;24.896;2022-12-18T14:34:53;101098.84;;;5.01;100.00
8069;BME280;4077;43.702;24.896;2022-12-18T14:37:24;101109.44;;;5.07;100.00
8069;BME280;4077;43.702;24.896;2022-12-18T14:39:55;101111.22;;;5.08;100.00
8069;BME280;4077;43.702;24.896;2022-12-18T14:42:22;101112.44;;;5.00;100.00
8069;BME280;4077;43.702;24.896;2022-12-18T14:44:47;101122.50;;;4.97;100.00
8069;BME280;4077;43.702;24.896;2022-12-18T14:47:16;101122.09;;;5.18;100.00
8069;BME280;4077;43.702;24.896;2022-12-18T14:49:42;101127.09;;;5.02;100.00
8069;BME280;4077;43.702;24.896;2022-12-18T14:52:37;101122.00;;;5.02;100.00
8069;BME280;4077;43.702;24.896;2022-12-18T14:55:03;101126.31;;;5.03;100.00
8069;BME280;4077;43.702;24.896;2022-12-18T14:57:34;101125.38;;;5.16;100.00
8069;BME280;4077;43.702;24.896;2022-12-18T15:00:18;101127.94;;;5.16;100.00